Time;durP1;ratioP1;P1;durP2;ratioP2;P2;SDS_P1;SDS_P2;PMS_P1;PMS_P2;Temp;Humidity;BMP_temperature;BMP_pressure;BME280_temperature;BME280_humidity;BME280_pressure;Samples;Min_cycle;Max_cycle;Signal;HPM_P1;HPM_P2
2023/11/10 00:01:25;;;;;;;10.77;9.67;;;;;;;3.13;100.00;98644.66;5071914;28;20184;-80
2023/11/10 00:03:52;;;;;;;10.77;9.33;;;;;;;3.16;100.00;98646.94;5063661;28;20690;-80
2023/11/10 00:06:21;;;;;;;11.37;9.37;;;;;;;3.19;100.00;98643.88;5085087;28;20282;-81
2023/11/10 00:08:52;;;;;;;10.77;9.50;;;;;;;3.24;100.00;98640.63;5076715;28;20817;-81
2023/11/10 00:11:21;;;;;;;10.17;9.17;;;;;;;3.26;100.00;98635.97;5082430;28;20209;-79
2023/11/10 00:13:48;;;;;;;10.23;9.13;;;;;;;3.29;100.00;98632.94;5073489;28;20200;-79
2023/11/10 00:16:19;;;;;;;10.87;9.60;;;;;;;3.31;100.00;98636.22;5083172;28;20207;-81
2023/11/10 00:18:49;;;;;;;10.23;9.13;;;;;;;3.28;100.00;98637.41;5078646;28;20208;-79
2023/11/10 00:21:23;;;;;;;10.87;9.73;;;;;;;3.24;100.00;98640.63;5090045;28;20283;-80
2023/11/10 00:23:54;;;;;;;10.70;8.90;;;;;;;3.26;100.00;98641.28;5072558;28;20675;-79
2023/11/10 00:26:26;;;;;;;12.37;9.00;;;;;;;3.28;100.00;98650.63;5083377;28;20200;-81
2023/11/10 00:28:57;;;;;;;9.70;8.70;;;;;;;3.27;100.00;98651.66;5059065;28;20239;-79
2023/11/10 00:31:28;;;;;;;8.87;7.97;;;;;;;3.29;100.00;98647.00;5079163;28;20663;-79
2023/11/10 00:33:59;;;;;;;10.53;8.97;;;;;;;3.33;100.00;98647.41;5073997;28;20213;-79
2023/11/10 00:36:29;;;;;;;10.20;8.57;;;;;;;3.35;100.00;98646.22;5073303;28;20246;-79
2023/11/10 00:38:58;;;;;;;10.03;8.70;;;;;;;3.38;100.00;98647.63;5079618;28;20392;-80
2023/11/10 00:41:31;;;;;;;10.43;8.47;;;;;;;3.42;100.00;98649.69;5074653;28;20254;-79
2023/11/10 00:44:01;;;;;;;9.60;8.60;;;;;;;3.41;100.00;98657.81;5077598;28;20287;-79
2023/11/10 00:46:55;;;;;;;9.80;8.20;;;;;;;3.44;100.00;98662.75;5075944;28;20185;-79
2023/11/10 00:49:26;;;;;;;9.73;8.17;;;;;;;3.44;100.00;98654.78;5071407;28;20231;-81
2023/11/10 00:52:00;;;;;;;8.77;7.87;;;;;;;3.46;100.00;98663.34;5082718;28;20184;-82
2023/11/10 00:54:31;;;;;;;10.40;8.23;;;;;;;3.47;100.00;98654.38;5075430;28;20245;-81
2023/11/10 00:57:03;;;;;;;10.60;8.40;;;;;;;3.49;100.00;98652.38;5076356;28;20188;-80
2023/11/10 00:59:38;;;;;;;9.63;8.17;;;;;;;3.49;100.00;98652.38;5058210;28;20207;-81
2023/11/10 01:02:06;;;;;;;11.10;8.60;;;;;;;3.48;100.00;98640.97;5060451;28;20200;-83
2023/11/10 01:04:37;;;;;;;9.87;8.27;;;;;;;3.49;100.00;98645.25;5079220;28;20192;-80
2023/11/10 01:07:05;;;;;;;9.97;8.97;;;;;;;3.52;100.00;98649.31;5078403;28;20275;-83
2023/11/10 01:09:36;;;;;;;10.60;8.40;;;;;;;3.52;100.00;98644.84;5079939;28;20199;-82
2023/11/10 01:12:08;;;;;;;9.27;8.20;;;;;;;3.54;100.00;98648.13;5076036;28;20199;-81
2023/11/10 01:14:36;;;;;;;10.43;8.83;;;;;;;3.55;100.00;98640.97;5074440;28;20660;-81
2023/11/10 01:17:05;;;;;;;11.10;8.93;;;;;;;3.57;100.00;98636.31;5080492;28;20199;-81
2023/11/10 01:19:38;;;;;;;9.50;8.50;;;;;;;3.64;100.00;98628.38;5088687;28;20184;-80
2023/11/10 01:22:09;;;;;;;9.57;8.60;;;;;;;3.62;100.00;98630.41;5076270;28;20207;-81
2023/11/10 01:24:41;;;;;;;9.10;8.20;;;;;;;3.64;100.00;98631.03;5087518;28;20198;-80
2023/11/10 01:27:10;;;;;;;10.57;8.97;;;;;;;3.66;100.00;98621.03;5076237;28;20205;-80
2023/11/10 01:29:42;;;;;;;10.63;9.47;;;;;;;3.68;100.00;98625.13;5090597;28;20192;-81
2023/11/10 01:32:09;;;;;;;10.60;9.50;;;;;;;3.74;100.00;98628.78;5077027;28;20283;-82
2023/11/10 01:34:42;;;;;;;12.17;9.90;;;;;;;3.75;100.00;98614.53;5086843;28;20195;-78
2023/11/10 01:37:19;;;;;;;10.30;9.07;;;;;;;3.80;100.00;98612.09;5086772;28;20200;-80
2023/11/10 01:39:47;;;;;;;10.33;9.20;;;;;;;3.80;100.00;98617.41;5082966;28;20204;-81
2023/11/10 01:42:15;;;;;;;10.37;9.10;;;;;;;3.81;100.00;98617.22;5081221;28;20231;-79
2023/11/10 01:44:44;;;;;;;10.40;8.60;;;;;;;3.83;100.00;98611.69;5083829;28;20227;-80
2023/11/10 01:47:12;;;;;;;10.27;9.13;;;;;;;3.84;100.00;98611.50;5084514;28;20208;-78
2023/11/10 01:49:40;;;;;;;11.80;10.63;;;;;;;3.87;100.00;98607.66;5068539;28;20212;-81
2023/11/10 01:52:08;;;;;;;11.30;10.20;;;;;;;3.90;100.00;98605.41;5044480;28;20298;-82
2023/11/10 01:54:40;;;;;;;10.80;9.60;;;;;;;3.91;100.00;98601.75;5076435;28;20199;-79
2023/11/10 01:57:12;;;;;;;10.30;9.23;;;;;;;3.93;100.00;98598.88;5075278;28;20215;-78
2023/11/10 01:59:46;;;;;;;11.00;9.47;;;;;;;3.94;100.00;98606.63;5074199;28;20610;-81
2023/11/10 02:02:17;;;;;;;10.37;9.30;;;;;;;3.97;100.00;98605.41;5066815;28;20196;-79
2023/11/10 02:04:45;;;;;;;10.40;9.30;;;;;;;3.96;100.00;98603.78;5078578;28;20181;-79
2023/11/10 02:07:15;;;;;;;9.70;8.80;;;;;;;3.97;100.00;98597.44;5085724;28;20199;-78
2023/11/10 02:09:51;;;;;;;9.33;8.43;;;;;;;3.97;100.00;98600.91;5080193;28;20200;-79
2023/11/10 02:12:24;;;;;;;10.90;9.40;;;;;;;3.98;100.00;98599.09;5060924;28;20181;-78
2023/11/10 02:15:03;;;;;;;10.33;9.23;;;;;;;4.00;100.00;98594.41;5078141;28;20670;-81
2023/11/10 02:17:37;;;;;;;13.03;8.97;;;;;;;3.98;100.00;98586.66;5093408;28;20203;-79
2023/11/10 02:20:09;;;;;;;9.93;8.77;;;;;;;3.94;100.00;98592.56;5093991;28;20200;-82
2023/11/10 02:22:40;;;;;;;10.03;8.63;;;;;;;3.93;100.00;98589.09;5093806;28;20203;-78
2023/11/10 02:25:16;;;;;;;10.07;8.97;;;;;;;3.93;100.00;98585.63;5065697;28;20196;-78
2023/11/10 02:27:47;;;;;;;9.70;8.70;;;;;;;3.94;100.00;98587.25;5077640;28;20201;-78
2023/11/10 02:30:18;;;;;;;9.40;8.50;;;;;;;3.92;100.00;98583.97;5067175;28;20201;-79
2023/11/10 02:32:47;;;;;;;10.47;8.60;;;;;;;3.92;100.00;98584.81;5090696;28;20260;-79
2023/11/10 02:35:15;;;;;;;9.73;8.83;;;;;;;3.91;100.00;98588.50;5080756;28;20192;-80
2023/11/10 02:37:47;;;;;;;9.50;8.60;;;;;;;3.92;100.00;98587.47;5081715;28;20694;-78
2023/11/10 02:40:16;;;;;;;10.43;8.90;;;;;;;3.93;100.00;98580.31;5081861;28;20197;-79
2023/11/10 02:42:44;;;;;;;10.47;9.03;;;;;;;3.92;100.00;98579.50;5085527;28;20190;-79
2023/11/10 02:45:13;;;;;;;9.63;8.67;;;;;;;3.94;100.00;98579.31;5092151;28;20188;-80
2023/11/10 02:47:42;;;;;;;10.77;9.10;;;;;;;3.96;100.00;98579.94;5082539;28;20224;-80
2023/11/10 02:50:10;;;;;;;10.40;9.23;;;;;;;3.97;100.00;98574.41;5082783;28;20225;-79
2023/11/10 02:52:39;;;;;;;9.93;8.93;;;;;;;3.94;100.00;98564.22;5086750;28;20622;-80
2023/11/10 02:55:09;;;;;;;10.37;9.20;;;;;;;3.97;100.00;98566.47;5082906;28;20195;-80
2023/11/10 02:57:40;;;;;;;9.87;8.90;;;;;;;3.97;100.00;98566.47;5075380;28;20247;-79
2023/11/10 03:00:09;;;;;;;10.60;8.73;;;;;;;3.98;100.00;98564.63;5084022;28;20223;-79
2023/11/10 03:02:39;;;;;;;10.70;8.73;;;;;;;3.98;100.00;98557.50;5084510;28;20656;-80
2023/11/10 03:05:11;;;;;;;9.07;8.17;;;;;;;4.00;100.00;98559.97;5081291;28;20203;-80
2023/11/10 03:07:39;;;;;;;10.47;9.10;;;;;;;4.02;100.00;98557.09;5080574;28;20197;-81
2023/11/10 03:10:13;;;;;;;10.63;9.17;;;;;;;4.04;100.00;98558.53;5084200;28;20680;-80
2023/11/10 03:12:42;;;;;;;9.47;8.43;;;;;;;4.03;100.00;98548.94;5082503;28;20200;-79
2023/11/10 03:15:13;;;;;;;9.93;8.83;;;;;;;4.08;100.00;98558.94;5085282;28;20678;-81
2023/11/10 03:17:40;;;;;;;9.90;8.80;;;;;;;4.11;100.00;98553.22;5082283;28;20197;-80
2023/11/10 03:20:10;;;;;;;9.50;8.50;;;;;;;4.10;100.00;98554.25;5086673;28;20192;-79
2023/11/10 03:22:40;;;;;;;8.90;8.00;;;;;;;4.09;100.00;98558.75;5082923;28;20184;-80
2023/11/10 03:25:09;;;;;;;8.90;8.10;;;;;;;4.11;100.00;98553.22;5081107;28;20231;-79
2023/11/10 03:27:38;;;;;;;8.70;7.80;;;;;;;4.13;100.00;98546.69;5085117;28;20428;-81
2023/11/10 03:30:11;;;;;;;8.33;7.53;;;;;;;4.13;100.00;98546.69;5076835;28;20193;-80
2023/11/10 03:32:42;;;;;;;8.40;7.50;;;;;;;4.17;100.00;98541.78;5081616;28;20226;-80
2023/11/10 03:35:11;;;;;;;8.87;7.90;;;;;;;4.17;100.00;98526.72;5078805;28;20193;-79
2023/11/10 03:37:41;;;;;;;8.23;7.30;;;;;;;4.18;100.00;98536.31;5086612;28;20224;-81
2023/11/10 03:40:15;;;;;;;8.67;7.77;;;;;;;4.23;100.00;98533.84;5061191;28;20193;-78
2023/11/10 03:42:45;;;;;;;7.67;6.87;;;;;;;4.25;100.00;98539.75;5077622;28;20263;-82
2023/11/10 03:45:14;;;;;;;7.93;7.13;;;;;;;4.26;100.00;98535.25;5076143;28;20639;-82
2023/11/10 03:47:45;;;;;;;7.53;6.83;;;;;;;4.28;100.00;98528.75;5081266;28;20254;-80
2023/11/10 03:50:17;;;;;;;7.07;6.37;;;;;;;4.31;100.00;98532.81;5084461;28;20217;-80
2023/11/10 03:52:44;;;;;;;9.33;8.30;;;;;;;4.35;100.00;98526.06;5075496;28;20217;-77
2023/11/10 03:55:11;;;;;;;8.10;7.30;;;;;;;4.37;100.00;98516.09;5083912;28;20195;-80
2023/11/10 03:57:46;;;;;;;7.87;7.00;;;;;;;4.37;100.00;98516.09;5077165;28;20196;-80
2023/11/10 04:00:17;;;;;;;6.40;5.80;;;;;;;4.39;100.00;98501.59;5083864;28;20189;-79
2023/11/10 04:02:46;;;;;;;7.33;6.57;;;;;;;4.42;100.00;98503.03;5078715;28;20227;-79
2023/11/10 04:05:14;;;;;;;6.20;5.70;;;;;;;4.46;100.00;98508.72;5068055;28;20223;-79
2023/11/10 04:07:44;;;;;;;6.77;6.10;;;;;;;4.45;100.00;98499.94;5079485;28;20227;-80
2023/11/10 04:10:13;;;;;;;7.30;6.00;;;;;;;4.45;100.00;98481.38;5085992;28;20717;-80
2023/11/10 04:12:44;;;;;;;6.60;6.00;;;;;;;4.44;100.00;98479.75;5084143;28;20192;-78
2023/11/10 04:15:12;;;;;;;6.70;6.00;;;;;;;4.45;100.00;98473.44;5075269;28;20197;-84
2023/11/10 04:17:41;;;;;;;6.57;5.97;;;;;;;4.46;100.00;98466.28;5073312;28;20210;-79
2023/11/10 04:20:12;;;;;;;6.60;5.80;;;;;;;4.46;100.00;98467.09;5060448;28;20212;-81
2023/11/10 04:22:41;;;;;;;7.63;5.83;;;;;;;4.47;100.00;98463.44;5085049;28;20188;-78
2023/11/10 04:25:12;;;;;;;6.23;5.63;;;;;;;4.50;100.00;98460.34;5079103;28;20255;-79
2023/11/10 04:27:44;;;;;;;6.80;5.97;;;;;;;4.49;100.00;98456.06;5074246;28;20673;-80
2023/11/10 04:30:19;;;;;;;6.50;5.90;;;;;;;4.53;100.00;98462.56;5077929;28;20223;-79
2023/11/10 04:32:48;;;;;;;6.40;5.80;;;;;;;4.54;100.00;98456.25;5080134;28;20242;-79
2023/11/10 04:35:17;;;;;;;6.23;5.70;;;;;;;4.59;100.00;98458.28;5075634;28;20199;-80
2023/11/10 04:37:49;;;;;;;6.80;6.10;;;;;;;4.60;100.00;98451.97;5076920;28;20193;-80
2023/11/10 04:40:18;;;;;;;6.80;6.20;;;;;;;4.60;100.00;98458.09;5075336;28;20301;-79
2023/11/10 04:42:47;;;;;;;8.27;6.10;;;;;;;4.62;100.00;98449.91;5087573;28;20857;-80
2023/11/10 04:45:16;;;;;;;6.00;5.47;;;;;;;4.64;100.00;98445.22;5068274;28;20661;-80
2023/11/10 04:47:49;;;;;;;5.90;5.40;;;;;;;4.68;100.00;98449.06;5077882;28;20282;-78
2023/11/10 04:50:19;;;;;;;6.80;5.60;;;;;;;4.70;100.00;98437.22;5076725;28;20211;-80
2023/11/10 04:52:52;;;;;;;7.27;5.73;;;;;;;4.73;100.00;98439.44;5076505;28;20200;-80
2023/11/10 04:55:25;;;;;;;6.97;6.27;;;;;;;4.74;100.00;98433.13;5074052;28;20228;-78
2023/11/10 04:57:52;;;;;;;6.33;5.73;;;;;;;4.75;100.00;98432.09;5075988;28;20193;-80
2023/11/10 05:00:28;;;;;;;6.67;5.63;;;;;;;4.80;100.00;98436.78;5080739;28;20192;-80
2023/11/10 05:02:59;;;;;;;6.80;6.17;;;;;;;4.83;100.00;98433.69;5081849;28;20283;-79
2023/11/10 05:05:34;;;;;;;7.43;6.00;;;;;;;4.86;100.00;98430.59;5080711;28;20199;-79
2023/11/10 05:08:03;;;;;;;7.33;5.87;;;;;;;4.88;100.00;98421.41;5083694;28;20245;-79
2023/11/10 05:10:35;;;;;;;7.83;6.33;;;;;;;4.91;100.00;98419.34;5078535;28;20247;-79
2023/11/10 05:13:04;;;;;;;7.47;6.43;;;;;;;4.92;100.00;98427.13;5074978;28;20225;-78
2023/11/10 05:15:37;;;;;;;7.63;6.17;;;;;;;4.98;100.00;98428.09;5080106;28;20652;-78
2023/11/10 05:18:14;;;;;;;7.33;6.40;;;;;;;4.97;100.00;98426.47;5077729;28;20201;-78
2023/11/10 05:21:01;;;;;;;7.23;6.50;;;;;;;4.98;100.00;98417.50;5077396;28;20197;-79
2023/11/10 05:23:36;;;;;;;8.30;7.50;;;;;;;5.01;100.00;98415.22;5074158;28;20193;-80
2023/11/10 05:26:05;;;;;;;8.17;6.90;;;;;;;5.05;100.00;98427.03;5076236;28;20197;-78
2023/11/10 05:28:34;;;;;;;9.03;7.33;;;;;;;5.08;100.00;98429.28;5085765;28;20223;-81
2023/11/10 05:31:02;;;;;;;8.07;7.37;;;;;;;5.09;100.00;98422.09;5086401;28;20229;-78
2023/11/10 05:33:30;;;;;;;8.73;7.93;;;;;;;5.08;100.00;98423.97;5076306;28;20193;-78
2023/11/10 05:36:02;;;;;;;9.97;8.47;;;;;;;5.11;100.00;98422.72;5075584;28;20190;-78
2023/11/10 05:38:31;;;;;;;9.30;8.40;;;;;;;5.11;100.00;98422.72;5084112;28;20221;-77
2023/11/10 05:40:59;;;;;;;9.70;8.30;;;;;;;5.11;100.00;98426.19;5080074;28;20232;-78
2023/11/10 05:43:30;;;;;;;9.77;8.23;;;;;;;5.14;100.00;98420.44;5079110;28;20197;-79
2023/11/10 05:46:03;;;;;;;10.60;8.87;;;;;;;5.14;100.00;98431.06;5081080;28;20200;-78
2023/11/10 05:48:35;;;;;;;10.03;8.63;;;;;;;5.15;100.00;98418.59;5074100;28;20212;-79
2023/11/10 05:51:03;;;;;;;10.87;8.67;;;;;;;5.14;100.00;98423.09;5079712;28;20266;-78
2023/11/10 05:53:32;;;;;;;9.77;8.70;;;;;;;5.15;100.00;98419.41;5078380;28;20276;-78
2023/11/10 05:56:05;;;;;;;11.63;9.33;;;;;;;5.14;100.00;98417.78;5085467;28;20194;-78
2023/11/10 05:58:39;;;;;;;10.97;9.10;;;;;;;5.17;100.00;98420.03;5078985;28;20199;-77
2023/11/10 06:01:07;;;;;;;10.80;9.70;;;;;;;5.17;100.00;98429.84;5083097;28;20196;-78
2023/11/10 06:03:35;;;;;;;10.20;8.73;;;;;;;5.17;100.00;98422.69;5070959;28;20653;-77
2023/11/10 06:06:06;;;;;;;10.73;9.60;;;;;;;5.17;100.00;98424.53;5088571;28;20205;-80
2023/11/10 06:08:36;;;;;;;12.27;9.87;;;;;;;5.15;100.00;98427.38;5081328;28;20330;-80
2023/11/10 06:11:04;;;;;;;10.53;9.47;;;;;;;5.15;100.00;98419.41;5084583;28;20649;-79
2023/11/10 06:13:32;;;;;;;11.50;10.30;;;;;;;5.16;100.00;98422.88;5085726;28;20181;-79
2023/11/10 06:16:06;;;;;;;13.20;10.70;;;;;;;5.16;100.00;98423.72;5080414;28;20205;-79
2023/11/10 06:18:35;;;;;;;12.27;10.80;;;;;;;5.17;100.00;98427.19;5074807;28;20205;-78
2023/11/10 06:21:06;;;;;;;12.23;10.40;;;;;;;5.16;100.00;98439.63;5079594;28;20271;-77
2023/11/10 06:23:41;;;;;;;11.07;9.93;;;;;;;5.15;100.00;98432.69;5088940;28;20193;-77
2023/11/10 06:26:10;;;;;;;10.63;9.53;;;;;;;5.15;100.00;98437.19;5077525;28;20675;-78
2023/11/10 06:28:41;;;;;;;11.20;10.00;;;;;;;5.14;100.00;98436.38;5086844;28;20220;-77
2023/11/10 06:31:12;;;;;;;12.93;10.10;;;;;;;5.13;100.00;98432.09;5084899;28;20196;-79
2023/11/10 06:33:42;;;;;;;10.47;9.37;;;;;;;5.15;100.00;98432.69;5093199;28;20199;-78
2023/11/10 06:36:14;;;;;;;10.97;9.87;;;;;;;5.15;100.00;98438.00;5079870;28;20200;-78
2023/11/10 06:38:44;;;;;;;11.47;9.43;;;;;;;5.14;100.00;98431.06;5081948;28;20199;-78
2023/11/10 06:41:14;;;;;;;11.50;10.30;;;;;;;5.15;100.00;98423.91;5073496;28;20264;-78
2023/11/10 06:43:49;;;;;;;11.53;9.93;;;;;;;5.17;100.00;98421.88;5071384;28;20283;-78
2023/11/10 06:46:27;;;;;;;11.87;10.63;;;;;;;5.15;100.00;98422.06;5082840;28;20193;-78
2023/11/10 06:48:57;;;;;;;11.63;10.40;;;;;;;5.16;100.00;98425.53;5079466;28;20209;-78
2023/11/10 06:51:27;;;;;;;12.50;11.20;;;;;;;5.24;100.00;98423.44;5081567;28;20184;-80
2023/11/10 06:53:59;;;;;;;12.93;11.63;;;;;;;5.28;100.00;98421.97;5078787;28;20265;-78
2023/11/10 06:56:31;;;;;;;12.40;11.20;;;;;;;5.32;100.00;98423.19;5085825;28;20268;-78
2023/11/10 06:59:04;;;;;;;13.87;12.47;;;;;;;5.35;100.00;98421.13;5083345;28;20192;-76
2023/11/10 07:01:35;;;;;;;13.60;12.30;;;;;;;5.34;100.00;98422.97;5079804;28;20272;-79
2023/11/10 07:04:04;;;;;;;12.93;11.63;;;;;;;5.39;100.00;98417.00;5077973;28;20970;-79
2023/11/10 07:06:32;;;;;;;13.80;12.40;;;;;;;5.40;100.00;98421.31;5073448;28;20212;-78
2023/11/10 07:08:59;;;;;;;13.87;12.40;;;;;;;5.41;100.00;98409.66;5075062;28;20244;-78
2023/11/10 07:11:27;;;;;;;15.80;12.63;;;;;;;5.45;100.00;98403.69;5088246;28;20197;-80
2023/11/10 07:13:54;;;;;;;14.23;12.67;;;;;;;5.46;100.00;98402.63;5073439;28;20201;-77
2023/11/10 07:16:21;;;;;;;13.60;12.20;;;;;;;5.52;100.00;98406.28;5083881;28;20196;-79
2023/11/10 07:18:52;;;;;;;13.00;11.70;;;;;;;5.65;100.00;98400.84;5090349;28;20222;-79
2023/11/10 07:21:29;;;;;;;14.27;12.37;;;;;;;5.79;100.00;98394.38;5079647;28;20204;-79
2023/11/10 07:23:56;;;;;;;14.57;12.90;;;;;;;5.92;100.00;98396.16;5076899;28;20196;-78
2023/11/10 07:26:35;;;;;;;14.13;12.00;;;;;;;6.07;100.00;98397.41;5078122;28;20189;-78
2023/11/10 07:29:04;;;;;;;14.27;12.70;;;;;;;6.19;100.00;98395.66;5076780;28;20220;-77
2023/11/10 07:31:33;;;;;;;14.83;13.07;;;;;;;6.31;100.00;98401.03;5078040;28;20236;-78
2023/11/10 07:34:04;;;;;;;14.70;12.97;;;;;;;6.39;100.00;98398.06;5085588;28;20239;-78
2023/11/10 07:36:31;;;;;;;13.83;12.33;;;;;;;6.44;100.00;98392.13;5076049;28;20206;-79
2023/11/10 07:39:03;;;;;;;14.63;12.80;;;;;;;6.48;100.00;98385.31;5075429;28;20200;-78
2023/11/10 07:41:30;;;;;;;16.33;14.63;;;;;;;6.54;100.00;98379.91;5079311;28;20235;-79
2023/11/10 07:43:58;;;;;;;17.73;15.43;;;;;;;6.60;100.00;98379.00;5079498;28;20228;-78
2023/11/10 07:46:27;;;;;;;15.73;14.03;;;;;;;6.64;100.00;98376.69;5076367;28;20604;-81
2023/11/10 07:48:56;;;;;;;14.70;12.83;;;;;;;6.64;100.00;98369.53;5082633;28;20286;-79
2023/11/10 07:51:25;;;;;;;12.23;10.97;;;;;;;6.71;100.00;98372.13;5076175;28;20284;-77
2023/11/10 07:53:53;;;;;;;12.53;11.33;;;;;;;6.76;100.00;98368.78;5075805;28;20200;-78
2023/11/10 07:56:22;;;;;;;13.47;11.07;;;;;;;6.84;100.00;98369.28;5084294;28;20233;-79
2023/11/10 07:58:52;;;;;;;11.87;10.63;;;;;;;6.89;100.00;98361.44;5072871;28;20672;-80
2023/11/10 08:01:20;;;;;;;11.70;10.53;;;;;;;6.94;100.00;98350.09;5074833;28;20200;-78
2023/11/10 08:03:47;;;;;;;12.47;11.17;;;;;;;7.02;100.00;98353.25;5088595;28;20200;-78
2023/11/10 08:06:14;;;;;;;11.83;10.63;;;;;;;7.07;100.00;98349.91;5071462;28;20192;-77
2023/11/10 08:08:43;;;;;;;12.33;10.33;;;;;;;7.04;100.00;98335.19;5086279;28;20218;-80
2023/11/10 08:11:12;;;;;;;12.33;11.03;;;;;;;7.15;100.00;98330.09;5075922;28;20203;-79
2023/11/10 08:13:42;;;;;;;12.83;11.53;;;;;;;7.26;100.00;98334.66;5081526;28;20385;-79
2023/11/10 08:16:12;;;;;;;13.07;11.73;;;;;;;7.35;100.00;98327.94;5089834;28;20280;-82
2023/11/10 08:18:41;;;;;;;14.20;11.40;;;;;;;7.47;100.00;98326.06;5078870;28;20210;-80
2023/11/10 08:21:18;;;;;;;11.70;10.60;;;;;;;7.52;100.00;98323.53;5073480;28;20200;-77
2023/11/10 08:23:47;;;;;;;11.40;10.20;;;;;;;7.56;100.00;98319.34;5074931;28;20195;-77
2023/11/10 08:26:15;;;;;;;10.10;9.10;;;;;;;7.69;100.00;98318.34;5076467;28;20203;-78
2023/11/10 08:28:45;;;;;;;10.47;9.37;;;;;;;7.82;100.00;98308.25;5073910;28;20268;-79
2023/11/10 08:31:19;;;;;;;5.70;5.20;;;;;;;7.96;100.00;98311.47;5082578;28;20252;-80
2023/11/10 08:33:48;;;;;;;2.97;2.77;;;;;;;8.15;100.00;98306.78;5091474;28;20195;-78
2023/11/10 08:36:18;;;;;;;3.90;3.50;;;;;;;8.28;100.00;98307.31;5083712;28;20656;-78
2023/11/10 08:38:45;;;;;;;3.13;2.83;;;;;;;8.43;100.00;98308.72;5071739;28;20196;-79
2023/11/10 08:41:14;;;;;;;3.90;2.87;;;;;;;8.53;100.00;98307.06;5068798;28;20232;-81
2023/11/10 08:43:42;;;;;;;3.90;3.10;;;;;;;8.61;100.00;98308.53;5061589;28;20279;-80
2023/11/10 08:46:16;;;;;;;4.87;3.43;;;;;;;8.70;100.00;98304.41;5080588;28;20196;-81
2023/11/10 08:48:44;;;;;;;5.60;3.50;;;;;;;8.81;100.00;98304.38;5060209;28;20196;-79
2023/11/10 08:51:11;;;;;;;3.60;3.30;;;;;;;8.88;100.00;98296.19;5069974;28;20224;-79
2023/11/10 08:53:38;;;;;;;4.57;3.87;;;;;;;8.96;100.00;98287.00;5073415;28;20246;-80
2023/11/10 08:56:09;;;;;;;4.73;4.23;;;;;;;9.06;100.00;98284.47;5074247;28;20263;-80
2023/11/10 08:58:39;;;;;;;6.23;4.30;;;;;;;9.10;100.00;98273.06;5072559;28;20200;-78
2023/11/10 09:01:07;;;;;;;3.90;3.47;;;;;;;9.20;100.00;98270.53;5075198;28;20195;-78
2023/11/10 09:03:35;;;;;;;4.50;3.50;;;;;;;9.33;100.00;98261.41;5076117;28;20189;-80
2023/11/10 09:06:08;;;;;;;3.87;2.93;;;;;;;9.42;100.00;98265.28;5075186;28;20725;-79
2023/11/10 09:08:37;;;;;;;2.57;2.37;;;;;;;9.50;100.00;98248.81;5072691;28;20262;-81
2023/11/10 09:11:05;;;;;;;2.73;2.33;;;;;;;9.49;100.00;98249.88;5076817;28;20216;-80
2023/11/10 09:13:39;;;;;;;3.33;2.57;;;;;;;9.59;100.00;98243.84;5075252;28;20214;-78
2023/11/10 09:16:17;;;;;;;2.43;2.13;;;;;;;9.70;100.00;98242.94;5080745;28;20224;-79
2023/11/10 09:18:45;;;;;;;3.47;2.10;;;;;;;9.84;100.00;98243.41;5074994;28;20565;-79
2023/11/10 09:21:15;;;;;;;3.53;1.93;;;;;;;9.88;100.00;98234.63;5079458;28;20290;-79
2023/11/10 09:23:46;;;;;;;1.77;1.63;;;;;;;9.94;100.00;98233.59;5078884;28;20283;-77
2023/11/10 09:26:16;;;;;;;2.77;1.90;;;;;;;9.95;100.00;98229.88;5078796;28;20193;-77
2023/11/10 09:28:48;;;;;;;2.20;1.97;;;;;;;10.05;100.00;98221.97;5074587;28;20201;-80
2023/11/10 09:31:17;;;;;;;2.77;2.20;;;;;;;10.19;100.00;98226.97;5090602;28;20287;-78
2023/11/10 09:33:51;;;;;;;2.80;2.20;;;;;;;10.24;100.00;98224.34;5081954;28;20677;-79
2023/11/10 09:36:19;;;;;;;4.43;2.80;;;;;;;10.38;100.00;98212.19;5076910;28;20185;-78
2023/11/10 09:38:46;;;;;;;2.63;2.00;;;;;;;10.54;100.00;98204.03;5075026;28;20284;-79
2023/11/10 09:41:15;;;;;;;2.97;1.97;;;;;;;10.69;100.00;98205.25;5080019;28;20232;-79
2023/11/10 09:43:47;;;;;;;4.43;2.67;;;;;;;10.81;100.00;98192.50;5080554;28;20203;-79
2023/11/10 09:46:17;;;;;;;3.80;2.23;;;;;;;10.74;100.00;98187.34;5080860;28;20193;-77
2023/11/10 09:48:48;;;;;;;3.37;2.50;;;;;;;10.96;100.00;98171.19;5082041;28;20200;-78
2023/11/10 09:51:17;;;;;;;3.50;2.63;;;;;;;11.11;100.00;98173.97;5079881;28;20224;-78
2023/11/10 09:53:53;;;;;;;2.30;2.10;;;;;;;11.20;100.00;98174.31;5073240;28;20204;-81
2023/11/10 09:56:24;;;;;;;4.73;2.10;;;;;;;11.27;100.00;98170.31;5074307;28;20196;-79
2023/11/10 09:58:53;;;;;;;2.50;1.77;;;;;;;11.34;100.00;98162.84;5073140;28;20200;-79
2023/11/10 10:01:21;;;;;;;1.87;1.53;;;;;;;11.47;100.00;98148.19;5082524;28;20224;-77
2023/11/10 10:03:52;;;;;;;1.40;1.30;;;;;;;11.64;100.00;98142.63;5060869;28;20211;-79
2023/11/10 10:06:25;;;;;;;1.83;1.60;;;;;;;11.75;100.00;98137.06;5057184;28;20223;-76
2023/11/10 10:08:56;;;;;;;1.57;1.40;;;;;;;12.02;100.00;98133.38;5074205;28;20690;-76
2023/11/10 10:11:27;;;;;;;1.60;1.50;;;;;;;12.01;100.00;98126.41;5062451;28;20659;-78
2023/11/10 10:13:57;;;;;;;1.87;1.53;;;;;;;12.08;100.00;98121.59;5082205;28;20281;-77
2023/11/10 10:16:28;;;;;;;1.77;1.60;;;;;;;12.06;100.00;98121.84;5079804;28;20203;-77
2023/11/10 10:19:02;;;;;;;2.13;1.50;;;;;;;12.03;100.00;98111.66;5082816;28;20300;-79
2023/11/10 10:21:45;;;;;;;3.77;2.43;;;;;;;12.04;100.00;98109.78;5083938;28;20244;-78
2023/11/10 10:24:19;;;;;;;4.07;2.20;;;;;;;12.11;100.00;98105.75;5076671;28;20193;-78
2023/11/10 10:26:51;;;;;;;3.97;2.50;;;;;;;12.24;100.00;98104.44;5077041;28;20223;-81
2023/11/10 10:29:21;;;;;;;2.33;1.60;;;;;;;12.20;100.00;98093.41;5081264;28;20276;-80
2023/11/10 10:31:48;;;;;;;2.53;1.83;;;;;;;12.24;100.00;98093.69;5082722;28;20661;-83
2023/11/10 10:34:17;;;;;;;2.13;1.83;;;;;;;12.23;100.00;98079.44;5079614;28;20204;-77
2023/11/10 10:36:45;;;;;;;2.03;1.83;;;;;;;12.08;100.00;98087.50;5080243;28;20192;-79
2023/11/10 10:39:18;;;;;;;3.07;2.27;;;;;;;12.19;100.00;98086.44;5082211;28;20219;-80
2023/11/10 10:41:51;;;;;;;2.33;2.10;;;;;;;12.05;100.00;98079.16;5076078;28;20231;-79
2023/11/10 10:44:20;;;;;;;2.77;2.13;;;;;;;11.87;100.00;98078.59;5074250;28;20228;-77
2023/11/10 10:46:55;;;;;;;2.20;1.60;;;;;;;11.83;100.00;98072.16;5077713;28;20192;-79
2023/11/10 10:49:31;;;;;;;3.87;1.70;;;;;;;11.68;100.00;98055.97;5078599;28;20760;-78
2023/11/10 10:51:58;;;;;;;4.33;1.80;;;;;;;11.70;100.00;98045.81;5081560;28;20326;-80
2023/11/10 10:54:26;;;;;;;3.17;1.80;;;;;;;11.75;100.00;98045.84;5074945;28;20276;-78
2023/11/10 10:56:56;;;;;;;2.93;1.97;;;;;;;11.77;100.00;98037.50;5080484;28;20258;-80
2023/11/10 10:59:26;;;;;;;2.50;1.70;;;;;;;11.93;100.00;98033.00;5088956;28;20652;-79
2023/11/10 11:01:59;;;;;;;4.40;1.73;;;;;;;11.97;100.00;98034.06;5072961;28;20290;-80
2023/11/10 11:04:52;;;;;;;2.70;1.77;;;;;;;12.09;100.00;98031.91;5078181;28;20266;-80
2023/11/10 11:07:41;;;;;;;2.00;1.80;;;;;;;12.23;100.00;98027.63;5064422;28;20675;-78
2023/11/10 11:10:41;;;;;;;2.30;1.83;;;;;;;12.38;100.00;98026.81;5072784;28;20249;-79
2023/11/10 11:13:11;;;;;;;2.00;1.90;;;;;;;12.44;100.00;98023.06;5082635;28;20185;-79
2023/11/10 11:16:12;;;;;;;2.43;1.70;;;;;;;12.45;100.00;98017.44;5073894;28;20196;-77
2023/11/10 11:19:01;;;;;;;2.17;1.70;;;;;;;12.58;100.00;98010.69;5078593;28;20205;-78
2023/11/10 11:21:35;;;;;;;1.80;1.47;;;;;;;12.68;100.00;98002.63;5079897;28;20674;-79
2023/11/10 11:24:11;;;;;;;2.10;1.90;;;;;;;12.61;100.00;98010.94;5091983;28;20197;-79
2023/11/10 11:26:41;;;;;;;1.87;1.40;;;;;;;12.36;100.00;98003.72;5057027;28;20690;-80
2023/11/10 11:29:09;;;;;;;3.40;2.53;;;;;;;12.40;100.00;98009.38;5072843;28;20221;-79
2023/11/10 11:31:47;;;;;;;2.50;2.30;;;;;;;12.41;100.00;98004.81;5086330;28;20240;-78
2023/11/10 11:34:19;;;;;;;3.57;2.80;;;;;;;12.51;100.00;98010.16;5074262;28;20268;-78
2023/11/10 11:36:49;;;;;;;2.50;1.50;;;;;;;12.60;100.00;97995.91;5067023;28;20723;-79
2023/11/10 11:39:29;;;;;;;2.80;1.97;;;;;;;12.74;100.00;97999.63;5082221;28;20193;-79
2023/11/10 11:42:05;;;;;;;1.90;1.80;;;;;;;12.82;100.00;98000.97;5075160;28;20267;-80
2023/11/10 11:44:35;;;;;;;2.10;1.90;;;;;;;12.63;100.00;97999.94;5091728;28;20189;-77